createdAt,value
2018-11-10T00:00:27.620Z,935.77
2018-11-10T00:01:27.643Z,935.81
2018-11-10T00:02:27.921Z,935.79
2018-11-10T00:03:27.679Z,935.80
2018-11-10T00:04:27.685Z,935.80
2018-11-10T00:05:27.704Z,935.77
2018-11-10T00:06:27.733Z,935.77
2018-11-10T00:07:27.980Z,935.83
2018-11-10T00:08:27.844Z,935.83
2018-11-10T00:09:27.796Z,935.85
2018-11-10T00:10:27.782Z,935.83
2018-11-10T00:11:27.815Z,935.83
2018-11-10T00:12:28.084Z,935.87
2018-11-10T00:13:27.847Z,935.84
2018-11-10T00:14:27.855Z,935.82
2018-11-10T00:15:27.871Z,935.82
2018-11-10T00:16:27.959Z,935.83
2018-11-10T00:17:28.023Z,935.85
2018-11-10T00:18:27.942Z,935.85
2018-11-10T00:19:27.958Z,935.85
2018-11-10T00:20:28.007Z,935.86
2018-11-10T00:21:27.991Z,935.83
2018-11-10T00:22:28.257Z,935.82
2018-11-10T00:23:28.026Z,935.85
2018-11-10T00:24:28.048Z,935.80
2018-11-10T00:25:28.047Z,935.83
2018-11-10T00:26:28.076Z,935.84
2018-11-10T00:27:28.099Z,935.85
2018-11-10T00:28:28.212Z,935.86
2018-11-10T00:29:28.121Z,935.89
2018-11-10T00:30:28.155Z,935.85
2018-11-10T00:31:28.165Z,935.83
2018-11-10T00:32:28.171Z,935.82
2018-11-10T00:33:28.301Z,935.85
2018-11-10T00:34:28.285Z,935.82
2018-11-10T00:35:28.234Z,935.84
2018-11-10T00:36:28.243Z,935.87
2018-11-10T00:37:28.259Z,935.83
2018-11-10T00:38:28.381Z,935.88
2018-11-10T00:39:28.306Z,935.88
2018-11-10T00:40:28.329Z,935.90
2018-11-10T00:41:28.341Z,935.83
2018-11-10T00:42:28.362Z,935.88
2018-11-10T00:43:28.480Z,935.85
2018-11-10T00:44:28.391Z,935.88
2018-11-10T00:45:28.400Z,935.83
2018-11-10T00:46:28.430Z,935.85
2018-11-10T00:47:28.448Z,935.84
2018-11-10T00:48:28.716Z,935.82
2018-11-10T00:49:28.470Z,935.86
2018-11-10T00:50:28.498Z,935.82
2018-11-10T00:51:28.518Z,935.83
2018-11-10T00:52:28.531Z,935.79
2018-11-10T00:53:28.803Z,935.76
2018-11-10T00:54:28.563Z,935.82
2018-11-10T00:55:28.591Z,935.84
2018-11-10T00:56:28.604Z,935.80
2018-11-10T00:57:28.622Z,935.81
2018-11-10T00:58:28.723Z,935.82
2018-11-10T00:59:28.655Z,935.84
2018-11-10T01:00:28.675Z,935.82
2018-11-10T01:01:28.696Z,935.82
2018-11-10T01:02:28.705Z,935.83
2018-11-10T01:03:28.826Z,935.77
2018-11-10T01:04:28.729Z,935.79
2018-11-10T01:05:28.763Z,935.76
2018-11-10T01:06:28.771Z,935.76
2018-11-10T01:07:28.794Z,935.76
2018-11-10T01:08:29.057Z,935.76
2018-11-10T01:09:28.830Z,935.80
2018-11-10T01:10:28.848Z,935.76
2018-11-10T01:11:28.855Z,935.74
2018-11-10T01:12:28.873Z,935.76
2018-11-10T01:13:28.989Z,935.76
2018-11-10T01:14:28.920Z,935.75
2018-11-10T01:15:28.935Z,935.78
2018-11-10T01:16:28.956Z,935.75
2018-11-10T01:17:28.969Z,935.76
2018-11-10T01:18:29.236Z,935.73
2018-11-10T01:19:29.006Z,935.78
2018-11-10T01:20:29.018Z,935.74
2018-11-10T01:21:29.037Z,935.76
2018-11-10T01:22:29.059Z,935.78
2018-11-10T01:23:29.073Z,935.75
2018-11-10T01:24:29.338Z,935.75
2018-11-10T01:25:29.105Z,935.77
2018-11-10T01:26:29.132Z,935.77
2018-11-10T01:27:29.142Z,935.76
2018-11-10T01:28:29.157Z,935.72
2018-11-10T01:29:29.177Z,935.79
2018-11-10T01:30:29.442Z,935.79
2018-11-10T01:31:29.201Z,935.76
2018-11-10T01:32:29.230Z,935.77
2018-11-10T01:33:29.239Z,935.75
2018-11-10T01:34:29.261Z,935.75
2018-11-10T01:35:29.531Z,935.79
2018-11-10T01:36:29.286Z,935.75
2018-11-10T01:37:29.323Z,935.71
2018-11-10T01:38:29.332Z,935.70
2018-11-10T01:39:29.358Z,935.69
2018-11-10T01:40:29.468Z,935.67
2018-11-10T01:41:29.376Z,935.67
2018-11-10T01:42:29.402Z,935.65
2018-11-10T01:43:29.427Z,935.64
2018-11-10T01:44:29.441Z,935.66
2018-11-10T01:45:29.540Z,935.66
2018-11-10T01:46:29.471Z,935.67
2018-11-10T01:47:29.497Z,935.65
2018-11-10T01:48:29.518Z,935.67
2018-11-10T01:49:29.529Z,935.64
2018-11-10T01:50:29.644Z,935.60
2018-11-10T01:51:29.558Z,935.57
2018-11-10T01:52:29.574Z,935.57
2018-11-10T01:53:29.598Z,935.55
2018-11-10T01:54:29.611Z,935.57
2018-11-10T01:55:29.715Z,935.53
2018-11-10T01:56:29.644Z,935.53
2018-11-10T01:57:29.654Z,935.51
2018-11-10T01:58:29.676Z,935.52
2018-11-10T01:59:29.703Z,935.47
2018-11-10T02:00:29.818Z,935.47
2018-11-10T02:01:29.730Z,935.43
2018-11-10T02:02:29.733Z,935.45
2018-11-10T02:03:29.769Z,935.40
2018-11-10T02:04:29.793Z,935.44
2018-11-10T02:05:29.904Z,935.41
2018-11-10T02:06:29.871Z,935.45
2018-11-10T02:07:29.821Z,935.41
2018-11-10T02:08:29.853Z,935.38
2018-11-10T02:09:29.872Z,935.36
2018-11-10T02:10:30.128Z,935.38
2018-11-10T02:11:29.906Z,935.35
2018-11-10T02:12:29.912Z,935.33
2018-11-10T02:13:29.945Z,935.34
2018-11-10T02:14:29.962Z,935.27
2018-11-10T02:15:30.167Z,935.32
2018-11-10T02:16:29.992Z,935.27
2018-11-10T02:17:30.011Z,935.26
2018-11-10T02:18:30.031Z,935.22
2018-11-10T02:19:30.035Z,935.22
2018-11-10T02:20:30.163Z,935.24
2018-11-10T02:21:30.068Z,935.24
2018-11-10T02:22:30.085Z,935.17
2018-11-10T02:23:30.118Z,935.19
2018-11-10T02:24:30.119Z,935.17
2018-11-10T02:25:30.399Z,935.16
2018-11-10T02:26:30.168Z,935.16
2018-11-10T02:27:30.198Z,935.10
2018-11-10T02:28:30.205Z,935.12
2018-11-10T02:29:30.245Z,935.10
2018-11-10T02:30:30.317Z,935.13
2018-11-10T02:31:30.256Z,935.12
2018-11-10T02:32:30.257Z,935.09
2018-11-10T02:33:30.291Z,935.09
2018-11-10T02:34:30.297Z,935.10
2018-11-10T02:35:30.558Z,935.12
2018-11-10T02:36:30.344Z,935.06
2018-11-10T02:37:30.352Z,935.04
2018-11-10T02:38:30.420Z,935.07
2018-11-10T02:39:30.395Z,935.05
2018-11-10T02:40:30.504Z,935.08
2018-11-10T02:41:30.450Z,935.03
2018-11-10T02:42:30.468Z,935.05
2018-11-10T02:43:30.462Z,935.02
2018-11-10T02:44:30.484Z,935.04
2018-11-10T02:45:30.603Z,935.05
2018-11-10T02:46:30.512Z,935.02
2018-11-10T02:47:30.529Z,935.04
2018-11-10T02:48:30.552Z,935.08
2018-11-10T02:49:30.573Z,935.03
2018-11-10T02:50:30.847Z,935.03
2018-11-10T02:51:30.587Z,935.04
2018-11-10T02:52:30.621Z,935.05
2018-11-10T02:53:30.621Z,934.97
2018-11-10T02:54:30.643Z,934.97
2018-11-10T02:55:30.917Z,934.96
2018-11-10T02:56:30.687Z,935.01
2018-11-10T02:57:30.704Z,934.98
2018-11-10T02:58:30.722Z,934.93
2018-11-10T02:59:30.734Z,934.93
2018-11-10T03:00:31.009Z,934.90
2018-11-10T03:01:30.772Z,934.89
2018-11-10T03:02:30.798Z,934.87
2018-11-10T03:03:30.812Z,934.84
2018-11-10T03:04:30.819Z,934.85
2018-11-10T03:05:30.941Z,934.85
2018-11-10T03:06:30.858Z,934.78
2018-11-10T03:07:30.880Z,934.80
2018-11-10T03:08:30.899Z,934.80
2018-11-10T03:09:30.912Z,934.77
2018-11-10T03:10:31.181Z,934.76
2018-11-10T03:11:30.946Z,934.75
2018-11-10T03:12:30.962Z,934.71
2018-11-10T03:13:30.968Z,934.71
2018-11-10T03:14:30.995Z,934.68
2018-11-10T03:15:31.265Z,934.71
2018-11-10T03:16:31.143Z,934.66
2018-11-10T03:17:31.055Z,934.65
2018-11-10T03:18:31.050Z,934.62
2018-11-10T03:19:31.089Z,934.60
2018-11-10T03:20:31.102Z,934.58
2018-11-10T03:21:31.369Z,934.54
2018-11-10T03:22:31.139Z,934.51
2018-11-10T03:23:31.152Z,934.56
2018-11-10T03:24:31.173Z,934.56
2018-11-10T03:25:31.172Z,934.52
2018-11-10T03:26:31.208Z,934.53
2018-11-10T03:27:31.479Z,934.52
2018-11-10T03:28:31.240Z,934.49
2018-11-10T03:29:31.256Z,934.52
2018-11-10T03:30:31.274Z,934.47
2018-11-10T03:31:31.289Z,934.50
2018-11-10T03:32:31.562Z,934.44
2018-11-10T03:33:31.310Z,934.38
2018-11-10T03:34:31.332Z,934.39
2018-11-10T03:35:31.344Z,934.34
2018-11-10T03:36:31.376Z,934.37
2018-11-10T03:37:31.490Z,934.35
2018-11-10T03:38:31.415Z,934.32
2018-11-10T03:39:31.427Z,934.30
2018-11-10T03:40:31.449Z,934.28
2018-11-10T03:41:31.452Z,934.29
2018-11-10T03:42:31.733Z,934.27
2018-11-10T03:43:31.501Z,934.25
2018-11-10T03:44:31.517Z,934.27
2018-11-10T03:45:31.534Z,934.23
2018-11-10T03:46:31.550Z,934.25
2018-11-10T03:47:31.817Z,934.25
2018-11-10T03:48:31.608Z,934.27
2018-11-10T03:49:31.585Z,934.28
2018-11-10T03:50:31.618Z,934.25
2018-11-10T03:51:31.634Z,934.23
2018-11-10T03:52:31.945Z,934.22
2018-11-10T03:53:31.662Z,934.23
2018-11-10T03:54:31.687Z,934.21
2018-11-10T03:55:31.705Z,934.16
2018-11-10T03:56:31.717Z,934.19
2018-11-10T03:57:31.823Z,934.15
2018-11-10T03:58:31.750Z,934.15
2018-11-10T03:59:31.773Z,934.12
2018-11-10T04:00:31.795Z,934.13
2018-11-10T04:01:31.804Z,934.12
2018-11-10T04:02:32.066Z,934.12
2018-11-10T04:03:31.829Z,934.11
2018-11-10T04:04:31.864Z,934.08
2018-11-10T04:05:31.862Z,934.11
2018-11-10T04:06:31.897Z,934.08
2018-11-10T04:07:32.013Z,934.09
2018-11-10T04:08:31.936Z,934.06
2018-11-10T04:09:31.940Z,934.05
2018-11-10T04:10:31.961Z,934.03
2018-11-10T04:11:31.972Z,934.01
2018-11-10T04:12:32.229Z,934.03
2018-11-10T04:13:32.013Z,934.01
2018-11-10T04:14:32.031Z,934.01
2018-11-10T04:15:32.048Z,933.97
2018-11-10T04:16:32.069Z,933.96
2018-11-10T04:17:32.068Z,933.95
2018-11-10T04:18:32.202Z,933.92
2018-11-10T04:19:32.100Z,933.90
2018-11-10T04:20:32.121Z,933.90
2018-11-10T04:21:32.152Z,933.94
2018-11-10T04:22:32.167Z,933.98
2018-11-10T04:23:32.194Z,934.00
2018-11-10T04:24:32.455Z,933.93
2018-11-10T04:25:32.218Z,933.92
2018-11-10T04:26:32.243Z,933.90
2018-11-10T04:27:32.244Z,933.92
2018-11-10T04:28:32.278Z,933.92
2018-11-10T04:29:32.521Z,933.90
2018-11-10T04:30:32.288Z,933.88
2018-11-10T04:31:32.330Z,933.87
2018-11-10T04:32:32.332Z,933.85
2018-11-10T04:33:32.355Z,933.79
2018-11-10T04:34:32.476Z,933.78
2018-11-10T04:35:32.396Z,933.83
2018-11-10T04:36:32.410Z,933.78
2018-11-10T04:37:32.427Z,933.77
2018-11-10T04:38:32.444Z,933.72
2018-11-10T04:39:32.560Z,933.68
2018-11-10T04:40:32.481Z,933.63
2018-11-10T04:41:32.499Z,933.66
2018-11-10T04:42:32.515Z,933.59
2018-11-10T04:43:32.533Z,933.58
2018-11-10T04:44:32.787Z,933.56
2018-11-10T04:45:32.549Z,933.56
2018-11-10T04:46:32.579Z,933.50
2018-11-10T04:47:32.598Z,933.49
2018-11-10T04:48:32.624Z,933.45
2018-11-10T04:49:32.734Z,933.50
2018-11-10T04:50:32.653Z,933.49
2018-11-10T04:51:32.666Z,933.46
2018-11-10T04:52:32.681Z,933.49
2018-11-10T04:53:32.725Z,933.49
2018-11-10T04:54:32.959Z,933.47
2018-11-10T04:55:32.738Z,933.48
2018-11-10T04:56:32.754Z,933.47
2018-11-10T04:57:32.770Z,933.43
2018-11-10T04:58:32.789Z,933.45
2018-11-10T04:59:32.892Z,933.41
2018-11-10T05:00:32.828Z,933.41
2018-11-10T05:01:32.953Z,933.38
2018-11-10T05:02:32.861Z,933.38
2018-11-10T05:03:32.873Z,933.37
2018-11-10T05:04:33.141Z,933.35
2018-11-10T05:05:32.910Z,933.32
2018-11-10T05:06:32.926Z,933.33
2018-11-10T05:07:32.940Z,933.31
2018-11-10T05:08:32.955Z,933.33
2018-11-10T05:09:33.226Z,933.29
2018-11-10T05:10:33.008Z,933.33
2018-11-10T05:11:33.007Z,933.35
2018-11-10T05:12:33.011Z,933.34
2018-11-10T05:13:33.034Z,933.35
2018-11-10T05:14:33.059Z,933.32
2018-11-10T05:15:33.326Z,933.33
2018-11-10T05:16:33.085Z,933.29
2018-11-10T05:17:33.108Z,933.29
2018-11-10T05:18:33.131Z,933.30
2018-11-10T05:19:33.151Z,933.31
2018-11-10T05:20:33.162Z,933.27
2018-11-10T05:21:33.436Z,933.24
2018-11-10T05:22:33.198Z,933.22
2018-11-10T05:23:33.213Z,933.26
2018-11-10T05:24:33.241Z,933.21
2018-11-10T05:25:33.255Z,933.19
2018-11-10T05:26:33.526Z,933.19
2018-11-10T05:27:33.269Z,933.16
2018-11-10T05:28:33.305Z,933.17
2018-11-10T05:29:33.326Z,933.15
2018-11-10T05:30:33.324Z,933.13
2018-11-10T05:31:33.451Z,933.20
2018-11-10T05:32:33.374Z,933.16
2018-11-10T05:33:33.385Z,933.17
2018-11-10T05:34:33.401Z,933.21
2018-11-10T05:35:33.423Z,933.18
2018-11-10T05:36:33.545Z,933.14
2018-11-10T05:37:33.455Z,933.15
2018-11-10T05:38:33.476Z,933.14
2018-11-10T05:39:33.492Z,933.17
2018-11-10T05:40:33.495Z,933.13
2018-11-10T05:41:33.760Z,933.14
2018-11-10T05:42:33.540Z,933.10
2018-11-10T05:43:33.561Z,933.13
2018-11-10T05:44:33.580Z,933.11
2018-11-10T05:45:33.580Z,933.11
2018-11-10T05:46:33.712Z,933.13
2018-11-10T05:47:33.612Z,933.11
2018-11-10T05:48:33.641Z,933.10
2018-11-10T05:49:33.669Z,933.09
2018-11-10T05:50:33.680Z,933.11
2018-11-10T05:51:33.794Z,933.08
2018-11-10T05:52:33.711Z,933.04
2018-11-10T05:53:33.717Z,933.06
2018-11-10T05:54:33.753Z,933.05
2018-11-10T05:55:33.764Z,933.02
2018-11-10T05:56:34.020Z,933.05
2018-11-10T05:57:33.802Z,933.05
2018-11-10T05:58:33.803Z,933.06
2018-11-10T05:59:33.828Z,933.02
2018-11-10T06:00:33.852Z,933.08
2018-11-10T06:01:34.124Z,933.05
2018-11-10T06:02:33.880Z,933.03
2018-11-10T06:03:33.901Z,933.02
2018-11-10T06:04:33.917Z,932.99
2018-11-10T06:05:33.934Z,932.99
2018-11-10T06:06:34.198Z,932.98
2018-11-10T06:07:33.969Z,932.97
2018-11-10T06:08:33.984Z,932.92
2018-11-10T06:09:34.088Z,932.96
2018-11-10T06:10:34.004Z,932.97
2018-11-10T06:11:34.019Z,932.98
2018-11-10T06:12:34.310Z,932.94
2018-11-10T06:13:34.071Z,932.97
2018-11-10T06:14:34.091Z,932.97
2018-11-10T06:15:34.101Z,932.93
2018-11-10T06:16:34.126Z,932.95
2018-11-10T06:17:34.141Z,932.95
2018-11-10T06:18:34.456Z,932.94
2018-11-10T06:19:34.178Z,932.93
2018-11-10T06:20:34.188Z,932.93
2018-11-10T06:21:34.209Z,932.91
2018-11-10T06:22:34.213Z,932.90
2018-11-10T06:23:34.343Z,932.91
2018-11-10T06:24:34.260Z,932.88
2018-11-10T06:25:34.263Z,932.90
2018-11-10T06:26:34.297Z,932.83
2018-11-10T06:27:34.314Z,932.86
2018-11-10T06:28:34.582Z,932.88
2018-11-10T06:29:34.329Z,932.84
2018-11-10T06:30:34.364Z,932.86
2018-11-10T06:31:34.381Z,932.80
2018-11-10T06:32:34.444Z,932.84
2018-11-10T06:33:34.659Z,932.80
2018-11-10T06:34:34.413Z,932.80
2018-11-10T06:35:34.429Z,932.81
2018-11-10T06:36:34.468Z,932.78
2018-11-10T06:37:34.487Z,932.78
2018-11-10T06:38:34.749Z,932.76
2018-11-10T06:39:34.499Z,932.70
2018-11-10T06:40:34.531Z,932.76
2018-11-10T06:41:34.543Z,932.69
2018-11-10T06:42:34.565Z,932.72
2018-11-10T06:43:34.834Z,932.70
2018-11-10T06:44:34.600Z,932.71
2018-11-10T06:45:34.617Z,932.69
2018-11-10T06:46:34.638Z,932.67
2018-11-10T06:47:34.651Z,932.67
2018-11-10T06:48:34.923Z,932.66
2018-11-10T06:49:34.691Z,932.63
2018-11-10T06:50:34.705Z,932.62
2018-11-10T06:51:34.723Z,932.64
2018-11-10T06:52:34.738Z,932.63
2018-11-10T06:53:35.006Z,932.61
2018-11-10T06:54:34.770Z,932.65
2018-11-10T06:55:34.788Z,932.69
2018-11-10T06:56:34.792Z,932.62
2018-11-10T06:57:34.824Z,932.63
2018-11-10T06:58:35.071Z,932.61
2018-11-10T06:59:34.857Z,932.62
2018-11-10T07:00:34.854Z,932.64
2018-11-10T07:01:34.920Z,932.64
2018-11-10T07:02:34.904Z,932.67
2018-11-10T07:03:35.205Z,932.67
2018-11-10T07:04:34.940Z,932.66
2018-11-10T07:05:34.956Z,932.67
2018-11-10T07:06:34.973Z,932.69
2018-11-10T07:07:34.993Z,932.72
2018-11-10T07:08:35.018Z,932.70
2018-11-10T07:09:35.363Z,932.69
2018-11-10T07:10:35.040Z,932.70
2018-11-10T07:11:35.063Z,932.75
2018-11-10T07:12:35.076Z,932.72
2018-11-10T07:13:35.095Z,932.73
2018-11-10T07:14:35.111Z,932.66
2018-11-10T07:15:35.381Z,932.70
2018-11-10T07:16:35.146Z,932.63
2018-11-10T07:17:35.220Z,932.64
2018-11-10T07:18:35.171Z,932.68
2018-11-10T07:19:35.179Z,932.67
2018-11-10T07:20:35.465Z,932.71
2018-11-10T07:21:35.229Z,932.69
2018-11-10T07:22:35.257Z,932.71
2018-11-10T07:23:35.267Z,932.70
2018-11-10T07:24:35.288Z,932.71
2018-11-10T07:25:35.402Z,932.74
2018-11-10T07:26:35.314Z,932.74
2018-11-10T07:27:35.328Z,932.75
2018-11-10T07:28:35.341Z,932.76
2018-11-10T07:29:35.366Z,932.73
2018-11-10T07:30:35.633Z,932.71
2018-11-10T07:31:35.399Z,932.74
2018-11-10T07:32:35.428Z,932.72
2018-11-10T07:33:35.436Z,932.70
2018-11-10T07:34:35.453Z,932.76
2018-11-10T07:35:35.566Z,932.72
2018-11-10T07:36:35.485Z,932.77
2018-11-10T07:37:35.590Z,932.74
2018-11-10T07:38:35.529Z,932.77
2018-11-10T07:39:35.535Z,932.77
2018-11-10T07:40:35.800Z,932.75
2018-11-10T07:41:35.568Z,932.74
2018-11-10T07:42:35.572Z,932.79
2018-11-10T07:43:35.591Z,932.77
2018-11-10T07:44:35.625Z,932.79
2018-11-10T07:45:35.890Z,932.79
2018-11-10T07:46:35.660Z,932.80
2018-11-10T07:47:35.671Z,932.75
2018-11-10T07:48:35.683Z,932.79
2018-11-10T07:49:35.710Z,932.76
2018-11-10T07:50:35.956Z,932.72
2018-11-10T07:51:35.734Z,932.74
2018-11-10T07:52:35.756Z,932.74
2018-11-10T07:53:35.772Z,932.78
2018-11-10T07:54:35.789Z,932.73
2018-11-10T07:55:35.909Z,932.76
2018-11-10T07:56:35.824Z,932.74
2018-11-10T07:57:35.847Z,932.72
2018-11-10T07:58:35.859Z,932.75
2018-11-10T07:59:35.875Z,932.77
2018-11-10T08:00:36.147Z,932.77
2018-11-10T08:01:35.912Z,932.73
2018-11-10T08:02:35.922Z,932.78
2018-11-10T08:03:35.946Z,932.78
2018-11-10T08:04:35.961Z,932.77
2018-11-10T08:05:36.227Z,932.76
2018-11-10T08:06:35.977Z,932.75
2018-11-10T08:07:36.017Z,932.76
2018-11-10T08:08:36.025Z,932.73
2018-11-10T08:09:36.047Z,932.74
2018-11-10T08:10:36.108Z,932.74
2018-11-10T08:11:36.199Z,932.81
2018-11-10T08:12:36.085Z,932.81
2018-11-10T08:13:36.114Z,932.82
2018-11-10T08:14:36.118Z,932.83
2018-11-10T08:15:36.150Z,932.81
2018-11-10T08:16:36.416Z,932.83
2018-11-10T08:17:36.175Z,932.83
2018-11-10T08:18:36.239Z,932.84
2018-11-10T08:19:36.209Z,932.82
2018-11-10T08:20:36.233Z,932.85
2018-11-10T08:21:36.351Z,932.87
2018-11-10T08:22:36.261Z,932.88
2018-11-10T08:23:36.304Z,932.84
2018-11-10T08:24:36.303Z,932.88
2018-11-10T08:25:36.298Z,932.89
2018-11-10T08:26:36.419Z,932.88
2018-11-10T08:27:36.352Z,932.86
2018-11-10T08:28:36.371Z,932.91
2018-11-10T08:29:36.383Z,932.93
2018-11-10T08:30:36.386Z,932.92
2018-11-10T08:31:36.530Z,932.94
2018-11-10T08:32:36.438Z,932.95
2018-11-10T08:33:36.435Z,932.95
2018-11-10T08:34:36.451Z,932.98
2018-11-10T08:35:36.473Z,933.01
2018-11-10T08:36:36.746Z,932.96
2018-11-10T08:37:36.508Z,932.97
2018-11-10T08:38:36.518Z,932.96
2018-11-10T08:39:36.553Z,932.98
2018-11-10T08:40:36.559Z,933.01
2018-11-10T08:41:36.837Z,933.01
2018-11-10T08:42:36.602Z,933.00
2018-11-10T08:43:36.605Z,933.00
2018-11-10T08:44:36.637Z,933.00
2018-11-10T08:45:36.655Z,933.00
2018-11-10T08:46:36.770Z,933.04
2018-11-10T08:47:36.685Z,933.08
2018-11-10T08:48:36.708Z,933.02
2018-11-10T08:49:36.718Z,933.05
2018-11-10T08:50:36.743Z,933.06
2018-11-10T08:51:37.003Z,933.10
2018-11-10T08:52:36.773Z,933.10
2018-11-10T08:53:36.790Z,933.10
2018-11-10T08:54:36.793Z,933.13
2018-11-10T08:55:36.819Z,933.11
2018-11-10T08:56:36.928Z,933.11
2018-11-10T08:57:36.877Z,933.15
2018-11-10T08:58:36.878Z,933.12
2018-11-10T08:59:36.892Z,933.12
2018-11-10T09:00:36.913Z,933.12
2018-11-10T09:01:37.170Z,933.11
2018-11-10T09:02:36.942Z,933.13
2018-11-10T09:03:36.949Z,933.14
2018-11-10T09:04:36.971Z,933.16
2018-11-10T09:05:36.988Z,933.13
2018-11-10T09:06:37.008Z,933.12
2018-11-10T09:07:37.129Z,933.17
2018-11-10T09:08:37.029Z,933.14
2018-11-10T09:09:37.063Z,933.10
2018-11-10T09:10:37.076Z,933.14
2018-11-10T09:11:37.094Z,933.10
2018-11-10T09:12:37.364Z,933.13
2018-11-10T09:13:37.225Z,933.10
2018-11-10T09:14:37.152Z,933.06
2018-11-10T09:15:37.169Z,933.07
2018-11-10T09:16:37.184Z,933.05
2018-11-10T09:17:37.466Z,933.10
2018-11-10T09:18:37.211Z,933.08
2018-11-10T09:19:37.226Z,933.13
2018-11-10T09:20:37.248Z,933.09
2018-11-10T09:21:37.348Z,933.14
2018-11-10T09:22:37.383Z,933.14
2018-11-10T09:23:37.298Z,933.13
2018-11-10T09:24:37.308Z,933.18
2018-11-10T09:25:37.328Z,933.20
2018-11-10T09:26:37.346Z,933.26
2018-11-10T09:27:37.609Z,933.25
2018-11-10T09:28:37.382Z,933.28
2018-11-10T09:29:37.384Z,933.29
2018-11-10T09:30:37.460Z,933.33
2018-11-10T09:31:37.417Z,933.38
2018-11-10T09:32:37.700Z,933.35
2018-11-10T09:33:37.465Z,933.36
2018-11-10T09:34:37.487Z,933.39
2018-11-10T09:35:37.503Z,933.41
2018-11-10T09:36:37.627Z,933.42
2018-11-10T09:37:37.787Z,933.41
2018-11-10T09:38:37.551Z,933.44
2018-11-10T09:39:37.567Z,933.43
2018-11-10T09:40:37.580Z,933.39
2018-11-10T09:41:37.589Z,933.44
2018-11-10T09:42:37.914Z,933.43
2018-11-10T09:43:37.635Z,933.42
2018-11-10T09:44:37.653Z,933.44
2018-11-10T09:45:37.651Z,933.45
2018-11-10T09:46:37.686Z,933.44
2018-11-10T09:47:37.964Z,933.47
2018-11-10T09:48:37.724Z,933.47
2018-11-10T09:49:37.734Z,933.45
2018-11-10T09:50:37.785Z,933.45
2018-11-10T09:51:37.770Z,933.49
2018-11-10T09:52:37.880Z,933.46
2018-11-10T09:53:37.808Z,933.48
2018-11-10T09:54:37.827Z,933.47
2018-11-10T09:55:37.838Z,933.51
2018-11-10T09:56:37.864Z,933.52
2018-11-10T09:57:37.967Z,933.53
2018-11-10T09:58:37.891Z,933.59
2018-11-10T09:59:37.905Z,933.56
2018-11-10T10:00:37.925Z,933.61
2018-11-10T10:01:38.081Z,933.67
2018-11-10T10:02:38.562Z,933.67
2018-11-10T10:03:37.972Z,933.68
2018-11-10T10:04:37.992Z,933.71
2018-11-10T10:05:37.995Z,933.69
2018-11-10T10:06:38.021Z,933.73
2018-11-10T10:07:38.025Z,933.71
2018-11-10T10:08:38.326Z,933.71
2018-11-10T10:09:38.068Z,933.72
2018-11-10T10:10:38.092Z,933.69
2018-11-10T10:11:38.113Z,933.69
2018-11-10T10:12:38.111Z,933.71
2018-11-10T10:13:38.248Z,933.70
2018-11-10T10:14:38.162Z,933.71
2018-11-10T10:15:38.179Z,933.70
2018-11-10T10:16:38.253Z,933.74
2018-11-10T10:17:38.204Z,933.76
2018-11-10T10:18:38.310Z,933.76
2018-11-10T10:19:38.237Z,933.77
2018-11-10T10:20:38.260Z,933.82
2018-11-10T10:21:38.326Z,933.82
2018-11-10T10:22:38.277Z,933.82
2018-11-10T10:23:38.410Z,933.86
2018-11-10T10:24:38.330Z,933.85
2018-11-10T10:25:38.346Z,933.85
2018-11-10T10:26:38.366Z,933.91
2018-11-10T10:27:38.377Z,933.90
2018-11-10T10:28:38.753Z,933.94
2018-11-10T10:29:38.415Z,933.92
2018-11-10T10:30:38.422Z,933.91
2018-11-10T10:31:38.445Z,933.95
2018-11-10T10:32:38.448Z,933.97
2018-11-10T10:33:38.576Z,933.92
2018-11-10T10:34:38.633Z,933.96
2018-11-10T10:35:38.749Z,933.96
2018-11-10T10:36:38.512Z,933.99
2018-11-10T10:37:38.551Z,933.98
2018-11-10T10:38:38.661Z,933.99
2018-11-10T10:39:38.582Z,933.98
2018-11-10T10:40:38.596Z,934.00
2018-11-10T10:41:38.617Z,934.03
2018-11-10T10:42:38.631Z,934.02
2018-11-10T10:43:38.905Z,934.05
2018-11-10T10:44:38.662Z,934.10
2018-11-10T10:45:38.688Z,934.04
2018-11-10T10:46:38.702Z,934.06
2018-11-10T10:47:38.717Z,934.06
2018-11-10T10:48:38.907Z,934.10
2018-11-10T10:49:38.750Z,934.06
2018-11-10T10:50:38.764Z,934.08
2018-11-10T10:51:38.788Z,934.07
2018-11-10T10:52:38.804Z,934.10
2018-11-10T10:53:39.066Z,934.06
2018-11-10T10:54:38.833Z,934.07
2018-11-10T10:55:38.857Z,934.09
2018-11-10T10:56:38.869Z,934.16
2018-11-10T10:57:38.880Z,934.11
2018-11-10T10:58:39.161Z,934.10
2018-11-10T10:59:38.914Z,934.15
2018-11-10T11:00:38.932Z,934.12
2018-11-10T11:01:38.938Z,934.14
2018-11-10T11:02:38.971Z,934.15
2018-11-10T11:03:38.968Z,934.15
2018-11-10T11:04:39.255Z,934.12
2018-11-10T11:05:39.020Z,934.17
2018-11-10T11:06:39.036Z,934.20
2018-11-10T11:07:39.052Z,934.17
2018-11-10T11:08:39.069Z,934.18
2018-11-10T11:09:39.136Z,934.21
2018-11-10T11:10:39.205Z,934.18
2018-11-10T11:11:39.128Z,934.23
2018-11-10T11:12:39.136Z,934.26
2018-11-10T11:13:39.138Z,934.29
2018-11-10T11:14:39.168Z,934.31
2018-11-10T11:15:39.344Z,934.35
2018-11-10T11:16:39.192Z,934.34
2018-11-10T11:17:39.224Z,934.33
2018-11-10T11:18:39.235Z,934.35
2018-11-10T11:19:39.260Z,934.34
2018-11-10T11:20:39.522Z,934.36
2018-11-10T11:21:39.307Z,934.34
2018-11-10T11:22:39.301Z,934.31
2018-11-10T11:23:39.315Z,934.33
2018-11-10T11:24:39.323Z,934.33
2018-11-10T11:25:39.609Z,934.34
2018-11-10T11:26:39.376Z,934.30
2018-11-10T11:27:39.397Z,934.31
2018-11-10T11:28:39.410Z,934.29
2018-11-10T11:29:39.417Z,934.29
2018-11-10T11:30:39.694Z,934.24
2018-11-10T11:31:39.458Z,934.24
2018-11-10T11:32:39.470Z,934.26
2018-11-10T11:33:39.548Z,934.26
2018-11-10T11:34:39.507Z,934.28
2018-11-10T11:35:39.626Z,934.26
2018-11-10T11:36:39.527Z,934.26
2018-11-10T11:37:39.558Z,934.28
2018-11-10T11:38:39.582Z,934.28
2018-11-10T11:39:39.591Z,934.29
2018-11-10T11:40:39.865Z,934.29
2018-11-10T11:41:39.640Z,934.29
2018-11-10T11:42:39.632Z,934.27
2018-11-10T11:43:39.658Z,934.27
2018-11-10T11:44:39.684Z,934.28
2018-11-10T11:45:39.940Z,934.29
2018-11-10T11:46:39.707Z,934.26
2018-11-10T11:47:39.728Z,934.25
2018-11-10T11:48:39.751Z,934.22
2018-11-10T11:49:39.763Z,934.19
2018-11-10T11:50:40.026Z,934.23
2018-11-10T11:51:39.802Z,934.14
2018-11-10T11:52:39.815Z,934.11
2018-11-10T11:53:39.831Z,934.06
2018-11-10T11:54:39.850Z,934.01
2018-11-10T11:55:40.120Z,933.99
2018-11-10T11:56:39.879Z,933.93
2018-11-10T11:57:39.930Z,933.92
2018-11-10T11:58:39.914Z,933.88
2018-11-10T11:59:39.931Z,933.85
2018-11-10T12:00:39.941Z,933.83
2018-11-10T12:01:40.199Z,933.77
2018-11-10T12:02:39.984Z,933.73
2018-11-10T12:03:40.005Z,933.67
2018-11-10T12:04:40.094Z,933.69
2018-11-10T12:05:40.032Z,933.65
2018-11-10T12:06:40.053Z,933.64
2018-11-10T12:07:40.164Z,933.65
2018-11-10T12:08:40.074Z,933.67
2018-11-10T12:09:40.085Z,933.70
2018-11-10T12:10:40.113Z,933.82
2018-11-10T12:11:40.131Z,933.85
2018-11-10T12:12:40.255Z,933.84
2018-11-10T12:13:40.172Z,933.90
2018-11-10T12:14:40.185Z,933.89
2018-11-10T12:15:40.197Z,933.87
2018-11-10T12:16:40.277Z,933.92
2018-11-10T12:17:40.486Z,933.90
2018-11-10T12:18:40.236Z,933.90
2018-11-10T12:19:40.261Z,933.90
2018-11-10T12:20:40.293Z,933.90
2018-11-10T12:21:40.304Z,933.93
2018-11-10T12:22:40.571Z,933.90
2018-11-10T12:23:40.341Z,933.84
2018-11-10T12:24:40.354Z,933.87
2018-11-10T12:25:40.377Z,933.87
2018-11-10T12:26:40.449Z,933.86
2018-11-10T12:27:40.637Z,933.87
2018-11-10T12:28:40.407Z,933.88